sensor_id;sensor_type;location;lat;lon;timestamp;temperature;humidity
1704;DHT22;849;48.780;9.216;2023-02-01T00:01:38;6.40;99.90
1704;DHT22;849;48.780;9.216;2023-02-01T00:04:04;6.20;99.90
1704;DHT22;849;48.780;9.216;2023-02-01T00:06:30;6.20;99.90
1704;DHT22;849;48.780;9.216;2023-02-01T00:08:55;6.20;99.90
1704;DHT22;849;48.780;9.216;2023-02-01T00:11:22;6.20;99.90
1704;DHT22;849;48.780;9.216;2023-02-01T00:13:48;6.30;99.90
1704;DHT22;849;48.780;9.216;2023-02-01T00:16:16;6.20;99.90
1704;DHT22;849;48.780;9.216;2023-02-01T00:18:46;6.20;99.90
1704;DHT22;849;48.780;9.216;2023-02-01T00:21:14;6.20;99.90
1704;DHT22;849;48.780;9.216;2023-02-01T00:23:40;6.10;99.90
1704;DHT22;849;48.780;9.216;2023-02-01T00:26:10;6.30;99.90
1704;DHT22;849;48.780;9.216;2023-02-01T00:28:38;6.20;99.90
1704;DHT22;849;48.780;9.216;2023-02-01T00:31:04;6.30;99.90
1704;DHT22;849;48.780;9.216;2023-02-01T00:33:31;6.20;99.90
1704;DHT22;849;48.780;9.216;2023-02-01T00:36:07;6.10;99.90
1704;DHT22;849;48.780;9.216;2023-02-01T00:38:37;6.00;99.90
1704;DHT22;849;48.780;9.216;2023-02-01T00:41:05;6.00;99.90
1704;DHT22;849;48.780;9.216;2023-02-01T00:43:31;5.90;99.90
1704;DHT22;849;48.780;9.216;2023-02-01T00:45:57;5.80;99.90
1704;DHT22;849;48.780;9.216;2023-02-01T00:48:25;5.90;99.90
1704;DHT22;849;48.780;9.216;2023-02-01T00:50:51;6.20;99.90
1704;DHT22;849;48.780;9.216;2023-02-01T00:53:17;6.20;99.90
1704;DHT22;849;48.780;9.216;2023-02-01T00:55:47;6.20;99.90
1704;DHT22;849;48.780;9.216;2023-02-01T00:58:14;6.30;99.90
1704;DHT22;849;48.780;9.216;2023-02-01T01:00:40;6.30;99.90
1704;DHT22;849;48.780;9.216;2023-02-01T01:03:06;6.40;99.90
1704;DHT22;849;48.780;9.216;2023-02-01T01:05:47;6.40;99.90
1704;DHT22;849;48.780;9.216;2023-02-01T01:08:13;6.60;99.90
1704;DHT22;849;48.780;9.216;2023-02-01T01:10:39;6.50;99.90
1704;DHT22;849;48.780;9.216;2023-02-01T01:13:06;6.50;99.90
1704;DHT22;849;48.780;9.216;2023-02-01T01:15:36;6.60;99.90
1704;DHT22;849;48.780;9.216;2023-02-01T01:18:01;6.80;99.90
1704;DHT22;849;48.780;9.216;2023-02-01T01:20:27;6.80;99.90
1704;DHT22;849;48.780;9.216;2023-02-01T01:22:53;6.90;99.90
1704;DHT22;849;48.780;9.216;2023-02-01T01:25:18;7.00;99.90
1704;DHT22;849;48.780;9.216;2023-02-01T01:27:44;7.00;99.90
1704;DHT22;849;48.780;9.216;2023-02-01T01:30:10;6.70;99.90
1704;DHT22;849;48.780;9.216;2023-02-01T01:32:35;6.30;99.90
1704;DHT22;849;48.780;9.216;2023-02-01T01:35:01;6.10;99.90
1704;DHT22;849;48.780;9.216;2023-02-01T01:37:27;6.30;99.90
1704;DHT22;849;48.780;9.216;2023-02-01T01:39:52;6.30;99.90
1704;DHT22;849;48.780;9.216;2023-02-01T01:42:18;6.40;99.90
1704;DHT22;849;48.780;9.216;2023-02-01T01:47:26;6.80;99.90
1704;DHT22;849;48.780;9.216;2023-02-01T01:49:52;6.90;99.90
1704;DHT22;849;48.780;9.216;2023-02-01T01:52:19;6.90;99.90
1704;DHT22;849;48.780;9.216;2023-02-01T01:54:47;6.90;99.90
1704;DHT22;849;48.780;9.216;2023-02-01T01:57:17;6.90;99.90
1704;DHT22;849;48.780;9.216;2023-02-01T01:59:48;6.50;99.90
1704;DHT22;849;48.780;9.216;2023-02-01T02:02:15;6.70;99.90
1704;DHT22;849;48.780;9.216;2023-02-01T02:04:41;6.60;99.90
1704;DHT22;849;48.780;9.216;2023-02-01T02:07:11;6.50;99.90
1704;DHT22;849;48.780;9.216;2023-02-01T02:09:37;6.70;99.90
1704;DHT22;849;48.780;9.216;2023-02-01T02:12:03;6.60;99.90
1704;DHT22;849;48.780;9.216;2023-02-01T02:14:29;6.40;99.90
1704;DHT22;849;48.780;9.216;2023-02-01T02:17:04;6.20;99.90
1704;DHT22;849;48.780;9.216;2023-02-01T02:36:19;6.40;99.90
1704;DHT22;849;48.780;9.216;2023-02-01T02:41:47;6.20;99.90
1704;DHT22;849;48.780;9.216;2023-02-01T02:53:34;6.90;99.90
1704;DHT22;849;48.780;9.216;2023-02-01T02:56:21;6.90;99.90
1704;DHT22;849;48.780;9.216;2023-02-01T02:59:09;7.00;99.90
1704;DHT22;849;48.780;9.216;2023-02-01T03:01:54;7.00;99.90
1704;DHT22;849;48.780;9.216;2023-02-01T03:04:38;6.70;99.90
1704;DHT22;849;48.780;9.216;2023-02-01T03:07:15;6.70;99.90
1704;DHT22;849;48.780;9.216;2023-02-01T03:10:03;6.80;99.90
1704;DHT22;849;48.780;9.216;2023-02-01T03:12:34;6.80;99.90
1704;DHT22;849;48.780;9.216;2023-02-01T03:15:24;7.00;99.90
1704;DHT22;849;48.780;9.216;2023-02-01T03:17:54;7.20;99.90
1704;DHT22;849;48.780;9.216;2023-02-01T03:20:22;7.20;99.90
1704;DHT22;849;48.780;9.216;2023-02-01T03:22:50;7.10;99.90
1704;DHT22;849;48.780;9.216;2023-02-01T03:25:22;6.90;99.90
1704;DHT22;849;48.780;9.216;2023-02-01T03:28:06;6.90;99.90
1704;DHT22;849;48.780;9.216;2023-02-01T03:30:52;6.90;99.90
1704;DHT22;849;48.780;9.216;2023-02-01T03:33:21;7.20;99.90
1704;DHT22;849;48.780;9.216;2023-02-01T03:41:16;7.10;99.90
1704;DHT22;849;48.780;9.216;2023-02-01T03:43:53;7.10;99.90
1704;DHT22;849;48.780;9.216;2023-02-01T03:46:27;7.00;99.90
1704;DHT22;849;48.780;9.216;2023-02-01T03:49:03;7.00;99.90
1704;DHT22;849;48.780;9.216;2023-02-01T03:51:31;7.00;99.90
1704;DHT22;849;48.780;9.216;2023-02-01T03:53:59;6.90;99.90
1704;DHT22;849;48.780;9.216;2023-02-01T03:56:27;7.00;99.90
1704;DHT22;849;48.780;9.216;2023-02-01T03:58:54;7.10;99.90
1704;DHT22;849;48.780;9.216;2023-02-01T04:01:27;7.20;99.90
1704;DHT22;849;48.780;9.216;2023-02-01T04:03:54;7.10;99.90
1704;DHT22;849;48.780;9.216;2023-02-01T04:06:20;7.20;99.90
1704;DHT22;849;48.780;9.216;2023-02-01T04:08:45;7.20;99.90
1704;DHT22;849;48.780;9.216;2023-02-01T04:11:11;6.90;99.90
1704;DHT22;849;48.780;9.216;2023-02-01T04:13:37;6.90;99.90
1704;DHT22;849;48.780;9.216;2023-02-01T04:16:03;7.10;99.90
1704;DHT22;849;48.780;9.216;2023-02-01T04:18:28;7.00;99.90
1704;DHT22;849;48.780;9.216;2023-02-01T04:20:54;7.00;99.90
1704;DHT22;849;48.780;9.216;2023-02-01T04:23:19;7.00;99.90
1704;DHT22;849;48.780;9.216;2023-02-01T04:25:46;6.90;99.90
1704;DHT22;849;48.780;9.216;2023-02-01T04:28:11;6.90;99.90
1704;DHT22;849;48.780;9.216;2023-02-01T04:30:37;6.90;99.90
1704;DHT22;849;48.780;9.216;2023-02-01T04:33:03;6.80;99.90
1704;DHT22;849;48.780;9.216;2023-02-01T04:35:32;7.00;99.90
1704;DHT22;849;48.780;9.216;2023-02-01T04:37:57;7.00;99.90
1704;DHT22;849;48.780;9.216;2023-02-01T04:40:23;7.10;99.90
1704;DHT22;849;48.780;9.216;2023-02-01T04:42:49;7.20;99.90
1704;DHT22;849;48.780;9.216;2023-02-01T04:45:14;7.30;99.90
1704;DHT22;849;48.780;9.216;2023-02-01T04:47:40;7.40;99.90
1704;DHT22;849;48.780;9.216;2023-02-01T04:50:06;7.30;99.90
1704;DHT22;849;48.780;9.216;2023-02-01T04:52:32;7.40;99.90
1704;DHT22;849;48.780;9.216;2023-02-01T04:54:58;7.30;99.90
1704;DHT22;849;48.780;9.216;2023-02-01T04:57:25;7.20;99.90
1704;DHT22;849;48.780;9.216;2023-02-01T04:59:51;7.40;99.90
1704;DHT22;849;48.780;9.216;2023-02-01T05:02:17;7.60;99.90
1704;DHT22;849;48.780;9.216;2023-02-01T05:04:42;7.60;99.90
1704;DHT22;849;48.780;9.216;2023-02-01T05:07:08;7.60;99.90
1704;DHT22;849;48.780;9.216;2023-02-01T05:09:33;7.70;99.90
1704;DHT22;849;48.780;9.216;2023-02-01T05:11:59;7.40;99.90
1704;DHT22;849;48.780;9.216;2023-02-01T05:14:43;7.30;99.90
1704;DHT22;849;48.780;9.216;2023-02-01T05:17:08;7.50;99.90
1704;DHT22;849;48.780;9.216;2023-02-01T05:19:34;7.40;99.90
1704;DHT22;849;48.780;9.216;2023-02-01T05:22:00;7.60;99.90
1704;DHT22;849;48.780;9.216;2023-02-01T05:24:25;7.70;99.90
1704;DHT22;849;48.780;9.216;2023-02-01T05:26:52;7.80;99.90
1704;DHT22;849;48.780;9.216;2023-02-01T05:29:18;7.60;99.90
1704;DHT22;849;48.780;9.216;2023-02-01T05:31:45;7.70;99.90
1704;DHT22;849;48.780;9.216;2023-02-01T05:34:11;7.70;99.90
1704;DHT22;849;48.780;9.216;2023-02-01T05:36:37;7.60;99.90
1704;DHT22;849;48.780;9.216;2023-02-01T05:39:03;7.60;99.90
1704;DHT22;849;48.780;9.216;2023-02-01T05:41:29;7.60;99.90
1704;DHT22;849;48.780;9.216;2023-02-01T05:43:54;7.80;99.90
1704;DHT22;849;48.780;9.216;2023-02-01T05:46:20;7.70;99.90
1704;DHT22;849;48.780;9.216;2023-02-01T05:48:46;7.50;99.90
1704;DHT22;849;48.780;9.216;2023-02-01T05:51:12;7.50;99.90
1704;DHT22;849;48.780;9.216;2023-02-01T05:53:38;7.70;99.90
1704;DHT22;849;48.780;9.216;2023-02-01T05:56:04;7.80;99.90
1704;DHT22;849;48.780;9.216;2023-02-01T05:58:30;7.50;99.90
1704;DHT22;849;48.780;9.216;2023-02-01T06:00:58;7.50;99.90
1704;DHT22;849;48.780;9.216;2023-02-01T06:03:23;7.70;99.90
1704;DHT22;849;48.780;9.216;2023-02-01T06:05:49;7.50;99.90
1704;DHT22;849;48.780;9.216;2023-02-01T06:08:15;7.10;99.90
1704;DHT22;849;48.780;9.216;2023-02-01T06:10:40;6.80;99.90
1704;DHT22;849;48.780;9.216;2023-02-01T06:13:06;6.90;99.90
1704;DHT22;849;48.780;9.216;2023-02-01T06:15:32;7.10;99.90
1704;DHT22;849;48.780;9.216;2023-02-01T06:17:58;7.10;99.90
1704;DHT22;849;48.780;9.216;2023-02-01T06:20:24;7.20;99.90
1704;DHT22;849;48.780;9.216;2023-02-01T06:22:50;7.10;99.90
1704;DHT22;849;48.780;9.216;2023-02-01T06:25:15;7.00;99.90
1704;DHT22;849;48.780;9.216;2023-02-01T06:27:42;6.90;99.90
1704;DHT22;849;48.780;9.216;2023-02-01T06:30:10;7.00;99.90
1704;DHT22;849;48.780;9.216;2023-02-01T06:32:39;6.90;99.90
1704;DHT22;849;48.780;9.216;2023-02-01T06:35:07;6.60;99.90
1704;DHT22;849;48.780;9.216;2023-02-01T06:37:33;6.50;99.90
1704;DHT22;849;48.780;9.216;2023-02-01T06:39:59;6.60;99.90
1704;DHT22;849;48.780;9.216;2023-02-01T06:42:25;6.80;99.90
1704;DHT22;849;48.780;9.216;2023-02-01T06:44:51;7.00;99.90
1704;DHT22;849;48.780;9.216;2023-02-01T06:47:16;7.00;99.90
1704;DHT22;849;48.780;9.216;2023-02-01T06:49:42;7.00;99.90
1704;DHT22;849;48.780;9.216;2023-02-01T06:52:08;7.30;99.90
1704;DHT22;849;48.780;9.216;2023-02-01T06:54:33;7.30;99.90
1704;DHT22;849;48.780;9.216;2023-02-01T06:56:59;7.10;99.90
1704;DHT22;849;48.780;9.216;2023-02-01T06:59:25;6.90;99.90
1704;DHT22;849;48.780;9.216;2023-02-01T07:01:51;7.00;99.90
1704;DHT22;849;48.780;9.216;2023-02-01T07:04:16;7.20;99.90
1704;DHT22;849;48.780;9.216;2023-02-01T07:06:42;7.20;99.90
1704;DHT22;849;48.780;9.216;2023-02-01T07:09:08;7.10;99.90
1704;DHT22;849;48.780;9.216;2023-02-01T07:11:34;7.30;99.90
1704;DHT22;849;48.780;9.216;2023-02-01T07:14:00;7.20;99.90
1704;DHT22;849;48.780;9.216;2023-02-01T07:16:26;7.10;99.90
1704;DHT22;849;48.780;9.216;2023-02-01T07:18:52;7.30;99.90
1704;DHT22;849;48.780;9.216;2023-02-01T07:21:19;7.20;99.90
1704;DHT22;849;48.780;9.216;2023-02-01T07:23:45;7.30;99.90
1704;DHT22;849;48.780;9.216;2023-02-01T07:26:12;7.50;99.90
1704;DHT22;849;48.780;9.216;2023-02-01T07:28:38;7.70;99.90
1704;DHT22;849;48.780;9.216;2023-02-01T07:31:09;7.80;99.90
1704;DHT22;849;48.780;9.216;2023-02-01T07:33:35;7.40;99.90
1704;DHT22;849;48.780;9.216;2023-02-01T07:36:03;7.40;99.90
1704;DHT22;849;48.780;9.216;2023-02-01T07:38:29;7.50;99.90
1704;DHT22;849;48.780;9.216;2023-02-01T07:41:02;7.60;99.90
1704;DHT22;849;48.780;9.216;2023-02-01T07:43:28;7.50;99.90
1704;DHT22;849;48.780;9.216;2023-02-01T07:45:54;7.40;99.90
1704;DHT22;849;48.780;9.216;2023-02-01T07:48:22;7.30;99.90
1704;DHT22;849;48.780;9.216;2023-02-01T07:50:48;7.30;99.90
1704;DHT22;849;48.780;9.216;2023-02-01T07:53:14;7.30;99.90
1704;DHT22;849;48.780;9.216;2023-02-01T07:55:40;7.40;99.90
1704;DHT22;849;48.780;9.216;2023-02-01T07:58:06;7.20;99.90
1704;DHT22;849;48.780;9.216;2023-02-01T08:00:32;7.00;99.90
1704;DHT22;849;48.780;9.216;2023-02-01T08:03:16;7.00;99.90
1704;DHT22;849;48.780;9.216;2023-02-01T08:05:42;6.90;99.90
1704;DHT22;849;48.780;9.216;2023-02-01T08:08:07;7.00;99.90
1704;DHT22;849;48.780;9.216;2023-02-01T08:10:33;7.30;99.90
1704;DHT22;849;48.780;9.216;2023-02-01T08:13:01;7.60;99.90
1704;DHT22;849;48.780;9.216;2023-02-01T08:15:30;7.60;99.90
1704;DHT22;849;48.780;9.216;2023-02-01T08:17:56;7.70;99.90
1704;DHT22;849;48.780;9.216;2023-02-01T08:20:22;7.70;99.90
1704;DHT22;849;48.780;9.216;2023-02-01T08:22:54;7.80;99.90
1704;DHT22;849;48.780;9.216;2023-02-01T08:25:20;8.00;99.90
1704;DHT22;849;48.780;9.216;2023-02-01T08:27:46;8.00;99.90
1704;DHT22;849;48.780;9.216;2023-02-01T08:30:12;8.10;99.90
1704;DHT22;849;48.780;9.216;2023-02-01T08:32:38;8.20;99.90
1704;DHT22;849;48.780;9.216;2023-02-01T08:35:04;8.40;99.90
1704;DHT22;849;48.780;9.216;2023-02-01T08:37:30;8.40;99.90
1704;DHT22;849;48.780;9.216;2023-02-01T08:39:56;8.30;99.90
1704;DHT22;849;48.780;9.216;2023-02-01T08:42:22;8.30;99.90
1704;DHT22;849;48.780;9.216;2023-02-01T08:45:06;8.30;99.90
1704;DHT22;849;48.780;9.216;2023-02-01T08:47:33;8.00;99.90
1704;DHT22;849;48.780;9.216;2023-02-01T08:50:00;8.00;99.90
1704;DHT22;849;48.780;9.216;2023-02-01T08:52:25;7.80;99.90
1704;DHT22;849;48.780;9.216;2023-02-01T08:54:51;7.80;99.90
1704;DHT22;849;48.780;9.216;2023-02-01T08:57:17;7.90;99.90
1704;DHT22;849;48.780;9.216;2023-02-01T08:59:43;7.70;99.90
1704;DHT22;849;48.780;9.216;2023-02-01T09:02:14;7.90;99.90
1704;DHT22;849;48.780;9.216;2023-02-01T09:04:40;8.00;99.90
1704;DHT22;849;48.780;9.216;2023-02-01T09:07:07;8.20;99.90
1704;DHT22;849;48.780;9.216;2023-02-01T09:09:33;8.30;99.90
1704;DHT22;849;48.780;9.216;2023-02-01T09:11:59;8.40;99.90
1704;DHT22;849;48.780;9.216;2023-02-01T09:14:24;8.50;99.90
1704;DHT22;849;48.780;9.216;2023-02-01T09:16:50;8.30;99.90
1704;DHT22;849;48.780;9.216;2023-02-01T09:19:15;8.20;99.90
1704;DHT22;849;48.780;9.216;2023-02-01T09:21:41;8.20;99.90
1704;DHT22;849;48.780;9.216;2023-02-01T09:24:11;8.30;99.90
1704;DHT22;849;48.780;9.216;2023-02-01T09:26:37;8.40;99.90
1704;DHT22;849;48.780;9.216;2023-02-01T09:29:03;8.40;99.90
1704;DHT22;849;48.780;9.216;2023-02-01T09:31:31;8.40;99.90
1704;DHT22;849;48.780;9.216;2023-02-01T09:33:57;8.60;99.90
1704;DHT22;849;48.780;9.216;2023-02-01T09:36:23;8.60;99.90
1704;DHT22;849;48.780;9.216;2023-02-01T09:38:49;8.40;99.90
1704;DHT22;849;48.780;9.216;2023-02-01T09:46:32;8.50;99.90
1704;DHT22;849;48.780;9.216;2023-02-01T09:49:03;8.20;99.90
1704;DHT22;849;48.780;9.216;2023-02-01T09:51:38;8.20;99.90
1704;DHT22;849;48.780;9.216;2023-02-01T09:54:26;8.10;99.90
1704;DHT22;849;48.780;9.216;2023-02-01T09:57:00;8.20;99.90
1704;DHT22;849;48.780;9.216;2023-02-01T09:59:52;8.40;99.90
1704;DHT22;849;48.780;9.216;2023-02-01T10:02:23;8.50;99.90
1704;DHT22;849;48.780;9.216;2023-02-01T10:04:50;8.20;99.90
1704;DHT22;849;48.780;9.216;2023-02-01T10:10:00;8.00;99.90
1704;DHT22;849;48.780;9.216;2023-02-01T10:13:05;7.90;99.90
1704;DHT22;849;48.780;9.216;2023-02-01T10:15:44;8.10;99.90
1704;DHT22;849;48.780;9.216;2023-02-01T10:21:23;8.10;99.90
1704;DHT22;849;48.780;9.216;2023-02-01T10:26:55;8.10;99.90
1704;DHT22;849;48.780;9.216;2023-02-01T10:29:27;8.30;99.90
1704;DHT22;849;48.780;9.216;2023-02-01T10:31:55;8.20;99.90
1704;DHT22;849;48.780;9.216;2023-02-01T10:34:30;8.10;99.90
1704;DHT22;849;48.780;9.216;2023-02-01T10:37:20;8.10;99.90
1704;DHT22;849;48.780;9.216;2023-02-01T10:39:49;8.10;99.90
1704;DHT22;849;48.780;9.216;2023-02-01T10:42:20;8.20;99.90
1704;DHT22;849;48.780;9.216;2023-02-01T10:44:47;8.40;99.90
1704;DHT22;849;48.780;9.216;2023-02-01T10:47:13;8.20;99.90
1704;DHT22;849;48.780;9.216;2023-02-01T10:49:49;8.30;99.90
1704;DHT22;849;48.780;9.216;2023-02-01T10:52:30;8.10;99.90
1704;DHT22;849;48.780;9.216;2023-02-01T10:55:28;8.10;99.90
1704;DHT22;849;48.780;9.216;2023-02-01T10:58:02;8.10;99.90
1704;DHT22;849;48.780;9.216;2023-02-01T11:00:44;8.10;99.90
1704;DHT22;849;48.780;9.216;2023-02-01T11:03:25;8.30;99.90
1704;DHT22;849;48.780;9.216;2023-02-01T11:05:56;8.10;99.90
1704;DHT22;849;48.780;9.216;2023-02-01T11:08:22;8.40;99.90
1704;DHT22;849;48.780;9.216;2023-02-01T11:10:58;8.30;99.90
1704;DHT22;849;48.780;9.216;2023-02-01T11:13:32;8.30;99.90
1704;DHT22;849;48.780;9.216;2023-02-01T11:16:03;8.50;99.90
1704;DHT22;849;48.780;9.216;2023-02-01T11:18:31;8.60;99.90
1704;DHT22;849;48.780;9.216;2023-02-01T11:20:58;8.90;99.90
1704;DHT22;849;48.780;9.216;2023-02-01T11:23:26;9.00;99.90
1704;DHT22;849;48.780;9.216;2023-02-01T11:25:55;9.00;99.90
1704;DHT22;849;48.780;9.216;2023-02-01T11:28:24;8.90;99.90
1704;DHT22;849;48.780;9.216;2023-02-01T11:30:51;8.60;99.90
1704;DHT22;849;48.780;9.216;2023-02-01T11:33:20;8.60;99.90
1704;DHT22;849;48.780;9.216;2023-02-01T11:35:47;8.20;99.90
1704;DHT22;849;48.780;9.216;2023-02-01T11:38:26;8.10;99.90
1704;DHT22;849;48.780;9.216;2023-02-01T11:40:52;8.30;99.90
1704;DHT22;849;48.780;9.216;2023-02-01T11:43:27;8.30;99.90
1704;DHT22;849;48.780;9.216;2023-02-01T11:46:01;8.60;99.90
1704;DHT22;849;48.780;9.216;2023-02-01T11:48:32;8.60;99.90
1704;DHT22;849;48.780;9.216;2023-02-01T12:26:41;8.40;97.70
1704;DHT22;849;48.780;9.216;2023-02-01T12:37:36;8.50;97.80
1704;DHT22;849;48.780;9.216;2023-02-01T12:45:54;8.80;98.50
1704;DHT22;849;48.780;9.216;2023-02-01T12:48:37;9.00;97.40
1704;DHT22;849;48.780;9.216;2023-02-01T12:51:22;8.80;97.40
1704;DHT22;849;48.780;9.216;2023-02-01T12:53:59;8.50;98.00
1704;DHT22;849;48.780;9.216;2023-02-01T12:59:21;8.60;98.60
1704;DHT22;849;48.780;9.216;2023-02-01T13:01:59;8.50;98.50
1704;DHT22;849;48.780;9.216;2023-02-01T13:04:32;8.30;99.40
1704;DHT22;849;48.780;9.216;2023-02-01T13:07:28;8.30;99.50
1704;DHT22;849;48.780;9.216;2023-02-01T13:10:02;8.30;99.90
1704;DHT22;849;48.780;9.216;2023-02-01T13:12:37;8.40;99.90
1704;DHT22;849;48.780;9.216;2023-02-01T13:15:13;8.30;99.90
1704;DHT22;849;48.780;9.216;2023-02-01T13:17:41;8.30;99.90
1704;DHT22;849;48.780;9.216;2023-02-01T13:20:29;8.60;99.90
1704;DHT22;849;48.780;9.216;2023-02-01T13:23:05;8.70;99.90
1704;DHT22;849;48.780;9.216;2023-02-01T13:25:41;8.80;99.70
1704;DHT22;849;48.780;9.216;2023-02-01T13:41:56;8.50;99.30
1704;DHT22;849;48.780;9.216;2023-02-01T13:44:33;8.50;99.60
1704;DHT22;849;48.780;9.216;2023-02-01T13:47:09;8.80;99.40
1704;DHT22;849;48.780;9.216;2023-02-01T13:49:39;8.50;99.00
1704;DHT22;849;48.780;9.216;2023-02-01T13:52:17;8.70;98.70
1704;DHT22;849;48.780;9.216;2023-02-01T13:54:47;8.50;98.90
1704;DHT22;849;48.780;9.216;2023-02-01T14:10:53;8.30;99.90
1704;DHT22;849;48.780;9.216;2023-02-01T14:13:34;8.40;99.90
1704;DHT22;849;48.780;9.216;2023-02-01T14:21:27;8.40;99.90
1704;DHT22;849;48.780;9.216;2023-02-01T14:32:07;8.70;99.50
1704;DHT22;849;48.780;9.216;2023-02-01T14:44:49;8.60;98.50
1704;DHT22;849;48.780;9.216;2023-02-01T14:52:37;8.60;98.70
1704;DHT22;849;48.780;9.216;2023-02-01T14:55:15;8.10;99.50
1704;DHT22;849;48.780;9.216;2023-02-01T14:57:43;8.00;99.90
1704;DHT22;849;48.780;9.216;2023-02-01T15:00:23;8.10;99.90
1704;DHT22;849;48.780;9.216;2023-02-01T15:02:50;8.20;99.90
1704;DHT22;849;48.780;9.216;2023-02-01T15:05:24;8.40;99.90
1704;DHT22;849;48.780;9.216;2023-02-01T15:07:51;8.30;99.90
1704;DHT22;849;48.780;9.216;2023-02-01T15:10:18;8.10;99.90
1704;DHT22;849;48.780;9.216;2023-02-01T15:12:45;8.20;99.90
1704;DHT22;849;48.780;9.216;2023-02-01T15:15:15;8.10;99.90
1704;DHT22;849;48.780;9.216;2023-02-01T15:17:49;8.20;99.90
1704;DHT22;849;48.780;9.216;2023-02-01T15:20:28;8.20;99.90
1704;DHT22;849;48.780;9.216;2023-02-01T15:23:19;8.10;99.90
1704;DHT22;849;48.780;9.216;2023-02-01T15:25:45;8.10;99.90
1704;DHT22;849;48.780;9.216;2023-02-01T15:28:16;8.30;99.90
1704;DHT22;849;48.780;9.216;2023-02-01T15:30:59;8.40;99.90
1704;DHT22;849;48.780;9.216;2023-02-01T15:33:26;8.10;99.90
1704;DHT22;849;48.780;9.216;2023-02-01T15:38:34;8.00;99.90
1704;DHT22;849;48.780;9.216;2023-02-01T15:43:31;7.90;99.90
1704;DHT22;849;48.780;9.216;2023-02-01T15:46:03;8.20;99.90
1704;DHT22;849;48.780;9.216;2023-02-01T15:48:40;8.10;99.90
1704;DHT22;849;48.780;9.216;2023-02-01T15:51:16;8.10;99.90
1704;DHT22;849;48.780;9.216;2023-02-01T15:53:54;8.30;99.90
1704;DHT22;849;48.780;9.216;2023-02-01T15:56:23;8.00;99.80
1704;DHT22;849;48.780;9.216;2023-02-01T15:58:53;7.70;99.90
1704;DHT22;849;48.780;9.216;2023-02-01T16:01:19;7.90;99.90
1704;DHT22;849;48.780;9.216;2023-02-01T16:03:46;8.20;99.90
1704;DHT22;849;48.780;9.216;2023-02-01T16:08:54;8.70;99.30
1704;DHT22;849;48.780;9.216;2023-02-01T16:11:29;8.90;99.50
1704;DHT22;849;48.780;9.216;2023-02-01T16:13:57;9.00;98.70
1704;DHT22;849;48.780;9.216;2023-02-01T16:16:23;8.60;97.70
1704;DHT22;849;48.780;9.216;2023-02-01T16:18:49;8.40;98.30
1704;DHT22;849;48.780;9.216;2023-02-01T16:21:14;8.10;97.80
1704;DHT22;849;48.780;9.216;2023-02-01T16:23:40;8.10;98.10
1704;DHT22;849;48.780;9.216;2023-02-01T16:26:06;8.10;98.50
1704;DHT22;849;48.780;9.216;2023-02-01T16:28:31;8.30;98.20
1704;DHT22;849;48.780;9.216;2023-02-01T16:30:58;8.20;97.80
1704;DHT22;849;48.780;9.216;2023-02-01T16:33:24;8.20;98.10
1704;DHT22;849;48.780;9.216;2023-02-01T16:35:50;8.10;98.50
1704;DHT22;849;48.780;9.216;2023-02-01T16:38:18;8.30;98.40
1704;DHT22;849;48.780;9.216;2023-02-01T16:40:47;8.30;98.30
1704;DHT22;849;48.780;9.216;2023-02-01T16:43:18;8.30;98.00
1704;DHT22;849;48.780;9.216;2023-02-01T16:45:45;8.40;98.10
1704;DHT22;849;48.780;9.216;2023-02-01T16:48:24;8.60;97.80
1704;DHT22;849;48.780;9.216;2023-02-01T16:50:53;8.40;97.30
1704;DHT22;849;48.780;9.216;2023-02-01T16:53:21;8.30;97.10
1704;DHT22;849;48.780;9.216;2023-02-01T16:55:47;8.10;97.00
1704;DHT22;849;48.780;9.216;2023-02-01T16:58:16;8.20;97.80
1704;DHT22;849;48.780;9.216;2023-02-01T17:00:42;8.50;97.40
1704;DHT22;849;48.780;9.216;2023-02-01T17:03:10;8.60;96.90
1704;DHT22;849;48.780;9.216;2023-02-01T17:05:38;8.70;96.80
1704;DHT22;849;48.780;9.216;2023-02-01T17:08:05;8.50;96.50
1704;DHT22;849;48.780;9.216;2023-02-01T17:10:32;8.20;97.10
1704;DHT22;849;48.780;9.216;2023-02-01T17:12:58;8.20;97.40
1704;DHT22;849;48.780;9.216;2023-02-01T17:15:29;8.30;97.20
1704;DHT22;849;48.780;9.216;2023-02-01T17:17:56;8.60;96.80
1704;DHT22;849;48.780;9.216;2023-02-01T17:20:24;8.60;96.60
1704;DHT22;849;48.780;9.216;2023-02-01T17:22:52;8.60;96.70
1704;DHT22;849;48.780;9.216;2023-02-01T17:25:19;8.70;96.60
1704;DHT22;849;48.780;9.216;2023-02-01T17:27:45;8.70;96.50
1704;DHT22;849;48.780;9.216;2023-02-01T17:30:12;8.70;96.50
1704;DHT22;849;48.780;9.216;2023-02-01T17:32:38;8.80;96.40
1704;DHT22;849;48.780;9.216;2023-02-01T17:35:05;8.80;96.60
1704;DHT22;849;48.780;9.216;2023-02-01T17:37:33;8.70;96.40
1704;DHT22;849;48.780;9.216;2023-02-01T17:39:59;8.50;96.50
1704;DHT22;849;48.780;9.216;2023-02-01T17:42:26;8.40;97.30
1704;DHT22;849;48.780;9.216;2023-02-01T17:44:55;8.40;97.10
1704;DHT22;849;48.780;9.216;2023-02-01T17:47:21;8.40;97.50
1704;DHT22;849;48.780;9.216;2023-02-01T17:49:47;8.50;97.60
1704;DHT22;849;48.780;9.216;2023-02-01T17:52:17;8.30;97.30
1704;DHT22;849;48.780;9.216;2023-02-01T17:54:44;8.30;97.50
1704;DHT22;849;48.780;9.216;2023-02-01T17:57:12;8.30;97.70
1704;DHT22;849;48.780;9.216;2023-02-01T17:59:37;8.00;98.10
1704;DHT22;849;48.780;9.216;2023-02-01T18:02:07;8.00;98.30
1704;DHT22;849;48.780;9.216;2023-02-01T18:04:34;8.10;98.80
1704;DHT22;849;48.780;9.216;2023-02-01T18:06:59;8.40;98.10
1704;DHT22;849;48.780;9.216;2023-02-01T18:09:25;8.40;97.80
1704;DHT22;849;48.780;9.216;2023-02-01T18:11:51;8.20;98.40
1704;DHT22;849;48.780;9.216;2023-02-01T18:14:19;8.10;98.90
1704;DHT22;849;48.780;9.216;2023-02-01T18:16:45;8.10;98.60
1704;DHT22;849;48.780;9.216;2023-02-01T18:19:11;8.00;99.20
1704;DHT22;849;48.780;9.216;2023-02-01T18:21:39;8.10;98.90
1704;DHT22;849;48.780;9.216;2023-02-01T18:24:08;8.00;99.20
1704;DHT22;849;48.780;9.216;2023-02-01T18:26:34;8.10;99.40
1704;DHT22;849;48.780;9.216;2023-02-01T18:29:00;8.30;99.20
1704;DHT22;849;48.780;9.216;2023-02-01T18:31:28;8.40;99.00
1704;DHT22;849;48.780;9.216;2023-02-01T18:33:55;8.10;99.00
1704;DHT22;849;48.780;9.216;2023-02-01T18:36:21;7.90;99.90
1704;DHT22;849;48.780;9.216;2023-02-01T18:38:47;7.80;99.90
1704;DHT22;849;48.780;9.216;2023-02-01T18:41:17;7.90;99.90
1704;DHT22;849;48.780;9.216;2023-02-01T18:43:46;8.00;99.90
1704;DHT22;849;48.780;9.216;2023-02-01T18:46:13;8.20;99.70
1704;DHT22;849;48.780;9.216;2023-02-01T18:48:40;8.40;99.90
1704;DHT22;849;48.780;9.216;2023-02-01T18:51:12;8.60;99.10
1704;DHT22;849;48.780;9.216;2023-02-01T18:53:41;8.50;98.50
1704;DHT22;849;48.780;9.216;2023-02-01T18:56:10;8.20;98.70
1704;DHT22;849;48.780;9.216;2023-02-01T18:58:36;7.90;99.60
1704;DHT22;849;48.780;9.216;2023-02-01T19:01:07;7.90;99.40
1704;DHT22;849;48.780;9.216;2023-02-01T19:03:34;8.00;99.60
1704;DHT22;849;48.780;9.216;2023-02-01T19:06:00;8.00;98.70
1704;DHT22;849;48.780;9.216;2023-02-01T19:08:26;7.80;99.10
1704;DHT22;849;48.780;9.216;2023-02-01T19:10:52;7.90;99.10
1704;DHT22;849;48.780;9.216;2023-02-01T19:13:18;7.90;98.90
1704;DHT22;849;48.780;9.216;2023-02-01T19:15:48;7.90;98.80
1704;DHT22;849;48.780;9.216;2023-02-01T19:18:14;8.00;99.00
1704;DHT22;849;48.780;9.216;2023-02-01T19:20:45;8.20;98.60
1704;DHT22;849;48.780;9.216;2023-02-01T19:23:12;8.20;98.50
1704;DHT22;849;48.780;9.216;2023-02-01T19:25:42;8.10;98.30
1704;DHT22;849;48.780;9.216;2023-02-01T19:28:08;8.20;98.70
1704;DHT22;849;48.780;9.216;2023-02-01T19:30:34;8.10;98.20
1704;DHT22;849;48.780;9.216;2023-02-01T19:32:59;8.00;98.40
1704;DHT22;849;48.780;9.216;2023-02-01T19:35:27;7.60;98.90